createdAt,value
2019-02-02T00:02:05.073Z,59.90
2019-02-02T00:04:37.165Z,59.80
2019-02-02T00:07:07.705Z,59.90
2019-02-02T00:09:38.212Z,59.90
2019-02-02T00:12:08.965Z,60.10
2019-02-02T00:14:39.469Z,60.10
2019-02-02T00:17:10.001Z,60.10
2019-02-02T00:19:41.537Z,60.10
2019-02-02T00:22:11.935Z,60.10
2019-02-02T00:24:42.435Z,60.20
2019-02-02T00:27:12.987Z,60.30
2019-02-02T00:29:43.444Z,60.20
2019-02-02T00:32:14.171Z,60.20
2019-02-02T00:34:44.643Z,60.20
2019-02-02T00:37:15.132Z,60.30
2019-02-02T00:39:45.738Z,60.30
2019-02-02T00:42:16.236Z,60.30
2019-02-02T00:44:46.694Z,60.40
2019-02-02T00:47:17.353Z,60.20
2019-02-02T00:49:47.830Z,60.30
2019-02-02T00:52:18.283Z,60.30
2019-02-02T00:54:48.805Z,60.30
2019-02-02T00:57:19.309Z,60.20
2019-02-02T00:59:49.839Z,60.20
2019-02-02T01:02:20.345Z,60.40
2019-02-02T01:04:50.917Z,60.30
2019-02-02T01:07:22.822Z,60.30
2019-02-02T01:09:53.346Z,60.40
2019-02-02T01:12:23.861Z,60.40
2019-02-02T01:14:54.365Z,60.40
2019-02-02T01:17:24.837Z,60.50
2019-02-02T01:19:55.299Z,60.40
2019-02-02T01:22:26.093Z,60.50
2019-02-02T01:24:56.708Z,60.50
2019-02-02T01:27:27.337Z,60.50
2019-02-02T01:29:57.825Z,60.70
2019-02-02T01:32:28.485Z,60.70
2019-02-02T01:34:58.974Z,60.60
2019-02-02T01:37:29.377Z,60.80
2019-02-02T01:39:59.793Z,60.70
2019-02-02T01:42:30.282Z,60.80
2019-02-02T01:45:00.858Z,60.90
2019-02-02T01:47:32.962Z,60.80
2019-02-02T01:50:03.437Z,60.80
2019-02-02T01:52:33.878Z,60.80
2019-02-02T01:55:05.352Z,60.90
2019-02-02T01:57:35.932Z,61.00
2019-02-02T02:00:07.830Z,61.20
2019-02-02T02:02:38.381Z,61.20
2019-02-02T02:05:09.070Z,61.20
2019-02-02T02:07:39.686Z,61.40
2019-02-02T02:10:11.227Z,61.40
2019-02-02T02:12:41.744Z,61.60
2019-02-02T02:15:13.794Z,61.60
2019-02-02T02:17:44.724Z,61.70
2019-02-02T02:20:16.452Z,61.70
2019-02-02T02:22:47.576Z,61.70
2019-02-02T02:25:21.417Z,61.80
2019-02-02T02:27:51.928Z,61.70
2019-02-02T02:30:23.830Z,61.90
2019-02-02T02:32:54.925Z,61.90
2019-02-02T02:35:25.577Z,61.90
2019-02-02T02:37:56.341Z,61.90
2019-02-02T02:40:26.882Z,62.00
2019-02-02T02:42:57.660Z,61.90
2019-02-02T02:45:28.329Z,62.00
2019-02-02T02:47:58.804Z,62.10
2019-02-02T02:50:29.333Z,62.10
2019-02-02T02:52:59.860Z,62.10
2019-02-02T02:55:30.376Z,62.10
2019-02-02T02:58:00.901Z,62.10
2019-02-02T03:00:31.436Z,62.10
2019-02-02T03:03:01.788Z,62.10
2019-02-02T03:05:32.431Z,62.10
2019-02-02T03:08:02.998Z,62.00
2019-02-02T03:10:33.549Z,62.00
2019-02-02T03:13:04.610Z,62.20
2019-02-02T03:15:35.028Z,62.00
2019-02-02T03:18:05.517Z,62.00
2019-02-02T03:20:35.971Z,62.10
2019-02-02T03:23:06.476Z,62.00
2019-02-02T03:25:39.679Z,61.90
2019-02-02T03:28:10.168Z,62.00
2019-02-02T03:30:40.598Z,61.90
2019-02-02T03:33:11.240Z,62.00
2019-02-02T03:35:41.684Z,62.10
2019-02-02T03:38:12.091Z,62.10
2019-02-02T03:40:42.645Z,62.00
2019-02-02T03:43:13.168Z,62.10
2019-02-02T03:45:43.548Z,62.00
2019-02-02T03:48:14.012Z,62.10
2019-02-02T03:50:44.866Z,62.00
2019-02-02T03:53:15.339Z,62.00
2019-02-02T03:55:46.095Z,61.90
2019-02-02T03:58:16.576Z,61.90
2019-02-02T04:00:47.261Z,61.90
2019-02-02T04:03:18.106Z,61.80
2019-02-02T04:05:48.622Z,61.90
2019-02-02T04:08:19.164Z,61.80
2019-02-02T04:10:49.735Z,61.90
2019-02-02T04:13:20.317Z,61.70
2019-02-02T04:15:50.728Z,61.80
2019-02-02T04:18:21.199Z,61.70
2019-02-02T04:20:52.056Z,61.60
2019-02-02T04:23:22.665Z,61.60
2019-02-02T04:25:53.187Z,61.60
2019-02-02T04:28:23.621Z,61.60
2019-02-02T04:30:53.974Z,61.50
2019-02-02T04:33:24.657Z,61.50
2019-02-02T04:35:55.181Z,61.50
2019-02-02T04:38:25.812Z,61.50
2019-02-02T04:40:56.290Z,61.60
2019-02-02T04:43:26.680Z,61.50
2019-02-02T04:45:57.037Z,61.50
2019-02-02T04:48:27.532Z,61.50
2019-02-02T04:50:57.902Z,61.50
2019-02-02T04:53:28.434Z,61.50
2019-02-02T04:55:58.909Z,61.50
2019-02-02T04:58:29.369Z,61.50
2019-02-02T05:00:59.828Z,61.50
2019-02-02T05:03:30.318Z,61.50
2019-02-02T05:06:00.709Z,61.50
2019-02-02T05:08:31.186Z,61.50
2019-02-02T05:11:01.879Z,61.70
2019-02-02T05:13:32.325Z,61.60
2019-02-02T05:16:02.684Z,61.50
2019-02-02T05:18:33.150Z,61.50
2019-02-02T05:21:03.702Z,61.50
2019-02-02T05:23:34.213Z,62.40
2019-02-02T05:26:04.717Z,61.50
2019-02-02T05:28:36.227Z,61.50
2019-02-02T05:31:07.045Z,61.40
2019-02-02T05:33:37.690Z,61.30
2019-02-02T05:36:08.046Z,61.40
2019-02-02T05:38:38.767Z,61.30
2019-02-02T05:41:09.204Z,61.30
2019-02-02T05:43:39.737Z,61.30
2019-02-02T05:46:10.481Z,61.30
2019-02-02T05:48:41.046Z,61.30
2019-02-02T05:51:11.550Z,61.30
2019-02-02T05:53:43.591Z,61.30
2019-02-02T05:56:14.101Z,61.30
2019-02-02T05:58:44.556Z,61.30
2019-02-02T06:01:18.456Z,61.30
2019-02-02T06:03:48.917Z,61.30
2019-02-02T06:06:19.600Z,61.20
2019-02-02T06:08:50.065Z,61.20
2019-02-02T06:11:20.476Z,61.10
2019-02-02T06:13:50.859Z,61.10
2019-02-02T06:16:21.637Z,61.10
2019-02-02T06:18:52.169Z,61.10
2019-02-02T06:21:22.850Z,61.10
2019-02-02T06:23:53.337Z,60.90
2019-02-02T06:26:23.746Z,61.00
2019-02-02T06:28:54.208Z,60.90
2019-02-02T06:31:24.608Z,60.90
2019-02-02T06:33:54.993Z,60.90
2019-02-02T06:36:25.345Z,60.70
2019-02-02T06:38:55.727Z,60.70
2019-02-02T06:41:26.534Z,60.70
2019-02-02T06:43:57.015Z,61.30
2019-02-02T06:46:27.469Z,60.60
2019-02-02T06:48:58.009Z,60.70
2019-02-02T06:51:28.606Z,60.60
2019-02-02T06:53:59.205Z,60.50
2019-02-02T06:56:29.631Z,60.50
2019-02-02T06:59:00.092Z,60.50
2019-02-02T07:01:30.777Z,60.40
2019-02-02T07:04:01.213Z,60.30
2019-02-02T07:06:31.756Z,60.40
2019-02-02T07:09:02.222Z,60.30
2019-02-02T07:11:36.087Z,61.20
2019-02-02T07:14:06.789Z,60.20
2019-02-02T07:16:48.542Z,60.20
2019-02-02T07:19:19.141Z,60.10
2019-02-02T07:21:49.636Z,60.10
2019-02-02T07:24:20.098Z,60.10
2019-02-02T07:26:50.618Z,60.10
2019-02-02T07:29:20.992Z,60.10
2019-02-02T07:31:51.476Z,60.10
2019-02-02T07:34:22.314Z,59.90
2019-02-02T07:36:53.097Z,59.90
2019-02-02T07:39:23.558Z,59.90
2019-02-02T07:41:54.001Z,59.80
2019-02-02T07:44:24.475Z,60.60
2019-02-02T07:46:54.987Z,59.70
2019-02-02T07:49:25.463Z,59.70
2019-02-02T07:51:55.969Z,59.80
2019-02-02T07:54:26.592Z,59.60
2019-02-02T07:56:56.979Z,59.60
2019-02-02T07:59:27.481Z,59.60
2019-02-02T08:01:58.147Z,59.60
2019-02-02T08:04:28.574Z,59.50
2019-02-02T08:06:59.048Z,59.50
2019-02-02T08:09:29.591Z,59.60
2019-02-02T08:12:00.049Z,59.50
2019-02-02T08:14:30.587Z,59.40
2019-02-02T08:17:01.121Z,59.50
2019-02-02T08:19:31.605Z,59.50
2019-02-02T08:22:02.204Z,59.40
2019-02-02T08:24:33.059Z,59.40
2019-02-02T08:27:03.604Z,59.50
2019-02-02T08:29:34.153Z,59.50
2019-02-02T08:32:04.825Z,59.50
2019-02-02T08:34:35.398Z,59.50
2019-02-02T08:37:05.934Z,59.50
2019-02-02T08:39:36.482Z,59.40
2019-02-02T08:42:06.945Z,59.30
2019-02-02T08:44:37.498Z,59.30
2019-02-02T08:47:08.135Z,59.30
2019-02-02T08:49:40.390Z,59.40
2019-02-02T08:52:11.033Z,59.40
2019-02-02T08:54:41.526Z,59.60
2019-02-02T08:57:12.127Z,59.40
2019-02-02T08:59:42.537Z,59.50
2019-02-02T09:02:15.998Z,59.50
2019-02-02T09:04:46.472Z,67.00
2019-02-02T09:07:20.276Z,62.70
2019-02-02T09:09:50.867Z,61.60
2019-02-02T09:12:21.549Z,60.80
2019-02-02T09:14:52.193Z,60.40
2019-02-02T09:17:23.659Z,60.10
2019-02-02T09:19:54.151Z,59.90
2019-02-02T09:22:24.676Z,59.60
2019-02-02T09:24:55.175Z,59.40
2019-02-02T09:27:25.685Z,59.20
2019-02-02T09:29:56.229Z,59.10
2019-02-02T09:32:26.965Z,59.10
2019-02-02T09:34:57.565Z,58.80
2019-02-02T09:37:28.170Z,58.60
2019-02-02T09:39:58.680Z,58.50
2019-02-02T09:42:31.277Z,58.40
2019-02-02T09:45:01.898Z,58.30
2019-02-02T09:47:33.536Z,58.20
2019-02-02T09:50:04.895Z,58.10
2019-02-02T09:52:35.499Z,57.90
2019-02-02T09:55:09.882Z,57.80
2019-02-02T09:57:40.588Z,57.70
2019-02-02T10:00:15.726Z,57.70
2019-02-02T10:02:46.569Z,57.60
2019-02-02T10:05:20.280Z,57.60
2019-02-02T10:07:51.731Z,57.50
2019-02-02T10:10:24.478Z,57.50
2019-02-02T10:12:56.383Z,57.50
2019-02-02T10:15:28.128Z,57.50
2019-02-02T10:18:01.848Z,57.60
2019-02-02T10:20:32.674Z,57.60
2019-02-02T10:23:20.562Z,57.80
2019-02-02T10:25:52.873Z,57.80
2019-02-02T10:28:24.638Z,58.20
2019-02-02T10:30:56.070Z,57.80
2019-02-02T10:33:26.702Z,57.70
2019-02-02T10:35:57.299Z,57.70
2019-02-02T10:38:29.508Z,57.60
2019-02-02T10:41:00.749Z,57.70
2019-02-02T10:43:32.315Z,57.70
2019-02-02T10:46:02.916Z,57.90
2019-02-02T10:48:33.559Z,57.80
2019-02-02T10:51:04.245Z,58.00
2019-02-02T10:53:35.645Z,57.80
2019-02-02T10:56:06.605Z,57.70
2019-02-02T10:58:37.152Z,57.50
2019-02-02T11:01:07.897Z,57.30
2019-02-02T11:03:38.607Z,57.10
2019-02-02T11:06:10.630Z,57.00
2019-02-02T11:09:04.246Z,56.90
2019-02-02T11:11:35.786Z,56.90
2019-02-02T11:14:07.985Z,56.80
2019-02-02T11:16:39.762Z,56.70
2019-02-02T11:19:10.340Z,56.50
2019-02-02T11:21:41.188Z,57.20
2019-02-02T11:24:11.856Z,56.40
2019-02-02T11:26:42.529Z,56.40
2019-02-02T11:29:13.291Z,56.40
2019-02-02T11:31:44.020Z,56.50
2019-02-02T11:34:14.775Z,56.30
2019-02-02T11:36:45.460Z,56.30
2019-02-02T11:39:16.282Z,56.20
2019-02-02T11:41:46.898Z,56.10
2019-02-02T11:44:20.003Z,56.10
2019-02-02T11:46:49.732Z,56.20
2019-02-02T11:49:20.294Z,56.10
2019-02-02T11:51:50.923Z,56.00
2019-02-02T11:54:21.511Z,56.00
2019-02-02T11:56:52.003Z,55.90
2019-02-02T11:59:22.914Z,56.00
2019-02-02T12:01:53.447Z,56.00
2019-02-02T12:04:24.082Z,56.10
2019-02-02T12:06:54.691Z,56.00
2019-02-02T12:09:25.166Z,56.00
2019-02-02T12:11:55.740Z,56.00
2019-02-02T12:14:27.829Z,56.00
2019-02-02T12:16:58.401Z,56.00
2019-02-02T12:19:28.980Z,55.90
2019-02-02T12:21:59.522Z,55.90
2019-02-02T12:24:30.117Z,55.80
2019-02-02T12:27:00.751Z,55.70
2019-02-02T12:29:31.249Z,55.60
2019-02-02T12:32:03.273Z,55.40
2019-02-02T12:34:33.881Z,55.40
2019-02-02T12:37:04.400Z,55.30
2019-02-02T12:39:34.902Z,55.30
2019-02-02T12:42:05.444Z,55.20
2019-02-02T12:44:35.957Z,55.30
2019-02-02T12:47:06.513Z,55.20
2019-02-02T12:49:38.672Z,55.20
2019-02-02T12:52:09.253Z,55.10
2019-02-02T12:54:39.715Z,55.00
2019-02-02T12:57:10.226Z,54.90
2019-02-02T12:59:40.778Z,54.90
2019-02-02T13:02:11.380Z,55.40
2019-02-02T13:04:41.974Z,54.70
2019-02-02T13:07:13.887Z,54.50
2019-02-02T13:09:46.979Z,54.50
2019-02-02T13:12:17.274Z,54.40
2019-02-02T13:14:47.855Z,54.40
2019-02-02T13:17:18.451Z,54.40
2019-02-02T13:19:49.064Z,54.40
2019-02-02T13:22:19.762Z,54.30
2019-02-02T13:24:50.394Z,54.40
2019-02-02T13:27:21.194Z,54.40
2019-02-02T13:29:52.211Z,54.40
2019-02-02T13:32:23.601Z,54.40
2019-02-02T13:38:47.972Z,54.30
2019-02-02T13:40:35.006Z,54.10
2019-02-02T13:43:07.520Z,54.10
2019-02-02T13:45:38.060Z,54.10
2019-02-02T13:48:08.574Z,54.20
2019-02-02T13:50:39.277Z,54.80
2019-02-02T13:53:10.324Z,54.10
2019-02-02T13:55:40.717Z,54.10
2019-02-02T13:58:11.930Z,54.10
2019-02-02T14:00:42.396Z,54.00
2019-02-02T14:03:13.649Z,54.00
2019-02-02T14:05:44.126Z,54.20
2019-02-02T14:08:14.673Z,54.10
2019-02-02T14:10:45.265Z,54.20
2019-02-02T14:13:15.763Z,54.30
2019-02-02T14:15:47.597Z,53.60
2019-02-02T14:18:18.146Z,54.20
2019-02-02T14:20:48.882Z,54.10
2019-02-02T14:23:22.565Z,54.10
2019-02-02T14:25:53.308Z,54.10
2019-02-02T14:28:28.463Z,54.10
2019-02-02T14:30:57.943Z,54.10
2019-02-02T14:33:28.889Z,54.10
2019-02-02T14:36:01.838Z,54.00
2019-02-02T14:38:32.142Z,54.00
2019-02-02T14:41:02.701Z,54.00
2019-02-02T14:43:33.419Z,54.00
2019-02-02T14:46:03.946Z,54.10
2019-02-02T14:48:34.555Z,54.10
2019-02-02T14:51:05.150Z,54.10
2019-02-02T14:53:36.071Z,54.00
2019-02-02T14:56:06.588Z,54.10
2019-02-02T14:58:37.134Z,54.20
2019-02-02T15:01:11.914Z,54.20
2019-02-02T15:03:42.624Z,54.20
2019-02-02T15:06:13.228Z,54.20
2019-02-02T15:08:43.925Z,54.20
2019-02-02T15:11:14.532Z,54.10
2019-02-02T15:13:45.080Z,54.00
2019-02-02T15:16:15.685Z,54.00
2019-02-02T15:18:47.054Z,53.90
2019-02-02T15:21:17.599Z,53.80
2019-02-02T15:23:48.206Z,53.60
2019-02-02T15:26:20.057Z,53.60
2019-02-02T15:28:51.536Z,53.50
2019-02-02T15:31:24.425Z,54.20
2019-02-02T15:33:55.143Z,53.40
2019-02-02T15:36:27.359Z,53.30
2019-02-02T15:38:57.974Z,53.30
2019-02-02T15:41:28.810Z,53.10
2019-02-02T15:43:59.623Z,53.10
2019-02-02T15:46:30.396Z,53.20
2019-02-02T15:49:01.116Z,52.90
2019-02-02T15:51:40.110Z,53.00
2019-02-02T15:54:04.529Z,52.90
2019-02-02T15:56:35.065Z,52.80
2019-02-02T15:59:05.647Z,52.90
2019-02-02T16:01:36.218Z,52.70
2019-02-02T16:04:06.969Z,52.60
2019-02-02T16:06:37.469Z,52.70
2019-02-02T16:09:10.106Z,52.60
2019-02-02T16:11:41.104Z,52.60
2019-02-02T16:14:11.802Z,52.70
2019-02-02T16:16:42.539Z,52.60
2019-02-02T16:19:13.205Z,52.60
2019-02-02T16:21:44.258Z,52.30
2019-02-02T16:24:14.826Z,52.20
2019-02-02T16:26:48.693Z,52.00
2019-02-02T16:29:19.816Z,51.60
2019-02-02T16:31:50.392Z,51.40
2019-02-02T16:34:29.731Z,51.40
2019-02-02T16:37:00.343Z,51.00
2019-02-02T16:39:30.864Z,50.60
2019-02-02T16:42:01.539Z,50.20
2019-02-02T16:44:33.626Z,50.10
2019-02-02T16:47:04.692Z,49.80
2019-02-02T16:49:35.329Z,49.70
2019-02-02T16:52:05.905Z,49.50
2019-02-02T16:54:40.822Z,49.50
2019-02-02T16:57:13.892Z,49.40
2019-02-02T16:59:45.574Z,49.20
2019-02-02T17:02:16.381Z,49.00
2019-02-02T17:04:47.040Z,48.90
2019-02-02T17:07:18.101Z,48.90
2019-02-02T17:09:49.836Z,48.80
2019-02-02T17:12:25.877Z,48.80
2019-02-02T17:14:56.674Z,48.80
2019-02-02T17:17:27.446Z,48.90
2019-02-02T17:19:58.640Z,48.90
2019-02-02T17:22:29.169Z,48.90
2019-02-02T17:24:59.812Z,49.00
2019-02-02T17:27:30.530Z,49.00
2019-02-02T17:30:01.224Z,49.00
2019-02-02T17:32:32.201Z,49.10
2019-02-02T17:35:02.857Z,49.30
2019-02-02T17:37:35.378Z,49.20
2019-02-02T17:40:08.612Z,49.30
2019-02-02T17:42:39.490Z,49.40
2019-02-02T17:45:12.643Z,49.40
2019-02-02T17:47:43.215Z,49.40
2019-02-02T17:50:17.006Z,49.40
2019-02-02T17:52:48.112Z,49.50
2019-02-02T17:55:19.222Z,49.50
2019-02-02T17:57:49.843Z,49.50
2019-02-02T18:00:33.220Z,49.40
2019-02-02T18:03:04.098Z,49.40
2019-02-02T18:05:34.616Z,49.40
2019-02-02T18:08:05.606Z,49.60
2019-02-02T18:10:36.192Z,49.50
2019-02-02T18:13:06.890Z,49.50
2019-02-02T18:15:39.907Z,49.50
2019-02-02T18:18:10.748Z,49.50
2019-02-02T18:20:41.529Z,49.60
2019-02-02T18:23:12.282Z,49.60
2019-02-02T18:25:43.102Z,49.60
2019-02-02T18:28:14.704Z,49.60
2019-02-02T18:30:45.380Z,49.70
2019-02-02T18:33:17.533Z,49.70
2019-02-02T18:35:48.043Z,49.80
2019-02-02T18:38:18.572Z,49.80
2019-02-02T18:40:49.081Z,49.70
2019-02-02T18:43:19.559Z,49.80
2019-02-02T18:45:50.123Z,49.80
2019-02-02T18:48:20.784Z,49.80
2019-02-02T18:50:52.117Z,49.90
2019-02-02T18:53:22.772Z,49.90
2019-02-02T18:56:01.001Z,50.00
2019-02-02T18:58:33.070Z,50.10
2019-02-02T19:01:03.682Z,50.20
2019-02-02T19:03:34.357Z,50.10
2019-02-02T19:06:05.408Z,50.20
2019-02-02T19:08:35.950Z,50.20
2019-02-02T19:11:06.823Z,50.20
2019-02-02T19:13:37.396Z,50.20
2019-02-02T19:16:08.088Z,50.20
2019-02-02T19:18:38.681Z,50.20
2019-02-02T19:21:09.329Z,50.20
2019-02-02T19:23:41.005Z,50.20
2019-02-02T19:26:11.607Z,50.20
2019-02-02T19:28:42.225Z,50.20
2019-02-02T19:31:12.853Z,50.30
2019-02-02T19:33:43.458Z,50.20
2019-02-02T19:36:14.029Z,50.30
2019-02-02T19:38:44.663Z,50.30
2019-02-02T19:41:15.199Z,50.30
2019-02-02T19:43:45.776Z,50.30
2019-02-02T19:46:16.705Z,50.20
2019-02-02T19:48:48.903Z,50.30
2019-02-02T19:51:20.281Z,50.30
2019-02-02T19:53:50.938Z,50.30
2019-02-02T19:56:21.502Z,50.20
2019-02-02T19:58:52.136Z,50.20
2019-02-02T20:01:22.682Z,50.50
2019-02-02T20:03:53.174Z,50.20
2019-02-02T20:06:25.373Z,50.20
2019-02-02T20:08:56.106Z,50.20
2019-02-02T20:11:26.681Z,50.30
2019-02-02T20:13:57.267Z,50.30
2019-02-02T20:16:27.830Z,50.40
2019-02-02T20:18:58.375Z,50.30
2019-02-02T20:21:29.298Z,50.30
2019-02-02T20:23:59.942Z,50.40
2019-02-02T20:26:30.555Z,50.40
2019-02-02T20:29:02.326Z,50.50
2019-02-02T20:31:32.786Z,50.80
2019-02-02T20:34:03.625Z,51.10
2019-02-02T20:36:34.380Z,51.00
2019-02-02T20:39:07.730Z,51.00
2019-02-02T20:41:38.563Z,51.00
2019-02-02T20:44:09.171Z,51.20
2019-02-02T20:46:39.931Z,51.10
2019-02-02T20:49:10.504Z,51.00
2019-02-02T20:51:41.084Z,51.10
2019-02-02T20:54:11.681Z,51.40
2019-02-02T20:56:42.714Z,51.40
2019-02-02T20:59:13.327Z,51.40
2019-02-02T21:01:45.871Z,51.40
2019-02-02T21:04:18.117Z,51.70
2019-02-02T21:06:48.681Z,51.90
2019-02-02T21:09:19.337Z,51.90
2019-02-02T21:11:57.202Z,52.00
2019-02-02T21:14:23.569Z,52.20
2019-02-02T21:16:55.977Z,52.30
2019-02-02T21:19:26.913Z,52.40
2019-02-02T21:21:57.541Z,52.40
2019-02-02T21:24:28.126Z,52.40
2019-02-02T21:26:58.707Z,52.60
2019-02-02T21:29:29.340Z,52.60
2019-02-02T21:32:00.282Z,52.80
2019-02-02T21:34:30.912Z,53.50
2019-02-02T21:37:01.552Z,52.90
2019-02-02T21:39:32.346Z,53.10
2019-02-02T21:42:03.031Z,53.10
2019-02-02T21:44:42.829Z,53.10
2019-02-02T21:47:05.796Z,53.20
2019-02-02T21:49:39.378Z,53.10
2019-02-02T21:52:11.241Z,53.10
2019-02-02T21:54:41.792Z,53.20
2019-02-02T21:57:12.361Z,53.20
2019-02-02T21:59:42.949Z,53.30
2019-02-02T22:02:13.488Z,53.30
2019-02-02T22:04:45.645Z,53.30
2019-02-02T22:07:16.616Z,53.40
2019-02-02T22:09:47.108Z,53.30
2019-02-02T22:12:17.946Z,53.30
2019-02-02T22:14:48.666Z,53.40
2019-02-02T22:17:19.252Z,53.40
2019-02-02T22:19:51.103Z,53.50
2019-02-02T22:22:21.807Z,53.40
2019-02-02T22:24:57.372Z,53.40
2019-02-02T22:27:27.894Z,53.50
2019-02-02T22:29:59.913Z,53.50
2019-02-02T22:32:30.964Z,53.50
2019-02-02T22:35:19.802Z,53.50
2019-02-02T22:38:30.223Z,53.60
2019-02-02T22:41:06.828Z,53.50
2019-02-02T22:43:35.908Z,53.50
2019-02-02T22:46:07.773Z,53.50
2019-02-02T22:48:38.349Z,53.60
2019-02-02T22:51:08.880Z,53.60
2019-02-02T22:53:39.421Z,53.70
2019-02-02T22:56:10.345Z,53.80
2019-02-02T22:58:40.840Z,53.80
2019-02-02T23:01:34.167Z,53.80
2019-02-02T23:04:58.429Z,53.90
2019-02-02T23:07:53.511Z,54.60
2019-02-02T23:11:19.428Z,53.80
2019-02-02T23:14:35.065Z,53.80
2019-02-02T23:17:19.565Z,53.90
2019-02-02T23:19:50.306Z,53.90
2019-02-02T23:22:21.002Z,53.90
2019-02-02T23:24:51.731Z,54.00
2019-02-02T23:27:22.347Z,54.00
2019-02-02T23:29:53.841Z,54.10
2019-02-02T23:32:24.413Z,54.00
2019-02-02T23:34:54.997Z,54.00
2019-02-02T23:37:25.484Z,54.10
2019-02-02T23:39:56.052Z,54.10
2019-02-02T23:42:26.602Z,54.20
2019-02-02T23:44:57.143Z,54.30
2019-02-02T23:47:27.614Z,54.20
2019-02-02T23:49:58.100Z,54.30
2019-02-02T23:52:28.688Z,54.50
2019-02-02T23:54:59.223Z,54.50
2019-02-02T23:57:32.472Z,54.50
